Time;durP1;ratioP1;P1;durP2;ratioP2;P2;SDS_P1;SDS_P2;PMS_P1;PMS_P2;Temp;Humidity;BMP_temperature;BMP_pressure;BME280_temperature;BME280_humidity;BME280_pressure;Samples;Min_cycle;Max_cycle;Signal;HPM_P1;HPM_P2
2023/09/02 00:02:06;;;;;;;5.30;4.90;;;18.80;99.90;;;;;;5097124;28;20286;-83
2023/09/02 00:04:31;;;;;;;5.20;4.68;;;18.70;99.90;;;;;;5096547;28;20160;-81
2023/09/02 00:06:57;;;;;;;6.25;5.60;;;18.70;99.90;;;;;;5096362;28;20185;-81
2023/09/02 00:09:23;;;;;;;7.80;4.93;;;18.80;99.90;;;;;;5096728;28;20168;-81
2023/09/02 00:11:48;;;;;;;5.88;4.50;;;18.80;99.90;;;;;;5096669;28;20179;-82
2023/09/02 00:14:14;;;;;;;6.93;4.88;;;18.70;99.90;;;;;;5096193;28;20548;-81
2023/09/02 00:16:40;;;;;;;4.30;3.88;;;18.70;99.90;;;;;;5096259;28;20547;-82
2023/09/02 00:19:05;;;;;;;5.55;4.30;;;18.70;99.90;;;;;;5096060;28;20687;-81
2023/09/02 00:21:34;;;;;;;5.38;3.70;;;18.70;99.90;;;;;;5096145;28;20183;-81
2023/09/02 00:24:04;;;;;;;4.85;4.07;;;18.70;99.90;;;;;;5095932;28;20175;-81
2023/09/02 00:26:31;;;;;;;4.28;3.88;;;18.80;99.90;;;;;;5095806;28;20199;-82
2023/09/02 00:28:56;;;;;;;4.28;3.60;;;18.80;99.90;;;;;;5095660;28;20171;-81
2023/09/02 00:31:22;;;;;;;3.97;3.55;;;18.80;99.90;;;;;;5096037;28;20259;-81
2023/09/02 00:33:48;;;;;;;7.05;3.70;;;18.90;99.90;;;;;;5095998;28;20250;-82
2023/09/02 00:36:14;;;;;;;5.35;3.90;;;18.90;99.90;;;;;;5095500;28;20694;-81
2023/09/02 00:38:40;;;;;;;5.30;4.05;;;18.90;99.90;;;;;;5095871;28;20165;-81
2023/09/02 00:41:11;;;;;;;4.10;3.78;;;18.90;99.90;;;;;;5095953;28;20199;-80
2023/09/02 00:43:38;;;;;;;6.00;3.97;;;18.90;99.90;;;;;;5095525;28;20165;-82
2023/09/02 00:46:05;;;;;;;4.03;3.72;;;19.00;99.90;;;;;;5095671;28;20210;-81
2023/09/02 00:48:30;;;;;;;6.63;4.28;;;19.00;99.90;;;;;;5095493;28;20297;-81
2023/09/02 00:50:56;;;;;;;4.55;4.10;;;18.90;99.90;;;;;;5095638;28;20679;-81
2023/09/02 00:53:24;;;;;;;5.25;4.22;;;18.80;99.90;;;;;;5095653;28;20170;-81
2023/09/02 00:55:50;;;;;;;5.30;4.43;;;18.80;99.90;;;;;;5095465;28;20314;-81
2023/09/02 00:58:17;;;;;;;5.80;4.85;;;18.80;99.90;;;;;;5095114;28;20168;-83
2023/09/02 01:00:43;;;;;;;6.00;4.93;;;18.80;99.90;;;;;;5095255;28;20536;-82
2023/09/02 01:03:09;;;;;;;5.30;4.63;;;18.80;99.90;;;;;;5095359;28;20171;-80
2023/09/02 01:05:35;;;;;;;5.47;4.68;;;18.70;99.90;;;;;;5095039;28;20171;-81
2023/09/02 01:08:03;;;;;;;5.15;4.75;;;18.60;99.90;;;;;;5095379;28;20260;-81
2023/09/02 01:10:31;;;;;;;6.85;5.30;;;18.50;99.90;;;;;;5095131;28;20192;-81
2023/09/02 01:12:57;;;;;;;5.32;4.82;;;18.30;99.90;;;;;;5094794;28;20199;-80
2023/09/02 01:15:23;;;;;;;6.53;4.30;;;18.30;99.90;;;;;;5094978;28;20697;-82
2023/09/02 01:17:49;;;;;;;5.50;4.40;;;18.40;99.90;;;;;;5093986;28;20223;-81
2023/09/02 01:20:17;;;;;;;5.65;4.88;;;18.40;99.90;;;;;;5094801;28;20223;-80
2023/09/02 01:23:18;;;;;;;8.52;6.13;;;18.50;99.90;;;;;;5094980;28;20180;-80
2023/09/02 01:25:52;;;;;;;8.73;6.00;;;18.50;99.90;;;;;;5094882;28;20612;-81
2023/09/02 01:28:23;;;;;;;7.45;6.68;;;18.30;99.90;;;;;;5094450;28;20264;-81
2023/09/02 01:30:53;;;;;;;7.05;6.32;;;18.30;99.90;;;;;;5095017;28;20176;-81
2023/09/02 01:33:21;;;;;;;12.60;6.63;;;18.20;99.90;;;;;;5094686;28;20647;-81
2023/09/02 01:35:50;;;;;;;7.10;6.20;;;18.10;99.90;;;;;;5094538;28;20219;-80
2023/09/02 01:38:17;;;;;;;7.75;6.47;;;18.20;99.90;;;;;;5094210;28;20170;-81
2023/09/02 01:40:43;;;;;;;9.05;6.60;;;18.20;99.90;;;;;;5093189;28;20176;-81
2023/09/02 01:43:11;;;;;;;7.13;6.40;;;18.20;99.90;;;;;;5094221;28;20225;-80
2023/09/02 01:45:39;;;;;;;7.55;5.90;;;18.20;99.90;;;;;;5094479;28;20179;-80
2023/09/02 01:48:06;;;;;;;7.60;6.10;;;18.30;99.90;;;;;;5094631;28;20255;-80
2023/09/02 01:50:34;;;;;;;5.93;4.88;;;18.30;99.90;;;;;;5094674;28;20255;-81
2023/09/02 01:53:00;;;;;;;6.22;5.20;;;18.30;99.90;;;;;;5094661;28;20200;-81
2023/09/02 01:55:26;;;;;;;8.52;5.10;;;18.30;99.90;;;;;;5094203;28;20175;-81
2023/09/02 01:57:54;;;;;;;6.15;5.45;;;18.30;99.90;;;;;;5094958;28;20195;-82
2023/09/02 02:00:20;;;;;;;6.25;5.55;;;18.30;99.90;;;;;;5094801;28;20164;-82
2023/09/02 02:02:49;;;;;;;5.68;5.18;;;18.30;99.90;;;;;;5094578;28;20533;-82
2023/09/02 02:05:17;;;;;;;5.57;5.05;;;18.40;99.90;;;;;;5094277;28;20175;-81
2023/09/02 02:07:49;;;;;;;5.85;5.35;;;18.30;99.90;;;;;;5094345;28;20175;-81
2023/09/02 02:10:17;;;;;;;7.78;5.13;;;18.40;99.90;;;;;;5094104;28;20258;-82
2023/09/02 02:12:43;;;;;;;6.10;5.20;;;18.30;99.90;;;;;;5094289;28;20244;-81
2023/09/02 02:15:11;;;;;;;6.20;5.18;;;18.40;99.90;;;;;;5094031;28;20259;-81
2023/09/02 02:17:41;;;;;;;7.53;5.10;;;18.40;99.90;;;;;;5094013;28;20580;-81
2023/09/02 02:20:09;;;;;;;5.53;4.87;;;18.40;99.90;;;;;;5093923;28;20219;-81
2023/09/02 02:22:35;;;;;;;8.60;4.95;;;18.40;99.90;;;;;;5094269;28;20175;-80
2023/09/02 02:25:00;;;;;;;6.10;4.70;;;18.30;99.90;;;;;;5093773;28;20164;-81
2023/09/02 02:27:26;;;;;;;5.35;4.80;;;18.30;99.90;;;;;;5093860;28;20163;-80
2023/09/02 02:29:51;;;;;;;7.70;4.90;;;18.30;99.90;;;;;;5094075;28;20224;-81
2023/09/02 02:32:17;;;;;;;5.83;4.40;;;18.20;99.90;;;;;;5093818;28;20229;-82
2023/09/02 02:34:43;;;;;;;7.25;5.10;;;18.20;99.90;;;;;;5093675;28;20650;-81
2023/09/02 02:37:08;;;;;;;7.05;4.93;;;18.30;99.90;;;;;;5092349;28;20571;-81
2023/09/02 02:39:34;;;;;;;7.22;5.60;;;18.30;99.90;;;;;;5093267;28;20192;-81
2023/09/02 02:41:59;;;;;;;7.43;6.10;;;18.30;99.90;;;;;;5093579;28;20266;-81
2023/09/02 02:44:25;;;;;;;6.13;5.10;;;18.20;99.90;;;;;;5092422;28;20172;-81
2023/09/02 02:46:51;;;;;;;9.55;5.85;;;18.20;99.90;;;;;;5093589;28;20179;-80
2023/09/02 02:49:16;;;;;;;5.87;5.30;;;18.20;99.90;;;;;;5092818;28;20682;-82
2023/09/02 02:51:42;;;;;;;7.63;6.05;;;18.10;99.90;;;;;;5092180;28;20172;-81
2023/09/02 02:54:07;;;;;;;6.25;5.65;;;18.00;99.90;;;;;;5093475;28;20164;-81
2023/09/02 02:56:33;;;;;;;6.37;5.43;;;17.90;99.90;;;;;;5093218;28;20207;-82
2023/09/02 02:58:59;;;;;;;6.53;5.90;;;17.90;99.90;;;;;;5093519;28;20175;-81
2023/09/02 03:01:25;;;;;;;7.23;5.90;;;17.90;99.90;;;;;;5093560;28;20705;-81
2023/09/02 03:03:51;;;;;;;6.45;5.95;;;17.90;99.90;;;;;;5093259;28;20190;-81
2023/09/02 03:06:18;;;;;;;9.30;6.47;;;18.00;99.90;;;;;;5093250;28;20697;-80
2023/09/02 03:08:44;;;;;;;7.53;5.90;;;18.00;99.90;;;;;;5093147;28;20164;-81
2023/09/02 03:11:10;;;;;;;7.20;6.50;;;18.00;99.90;;;;;;5093380;28;20332;-82
2023/09/02 03:13:37;;;;;;;7.30;5.97;;;18.00;99.90;;;;;;5093332;28;20225;-82
2023/09/02 03:16:03;;;;;;;8.33;6.30;;;18.00;99.90;;;;;;5091895;28;20315;-82
2023/09/02 03:18:29;;;;;;;9.98;6.90;;;18.10;99.90;;;;;;5092650;28;20184;-80
2023/09/02 03:20:55;;;;;;;11.45;9.77;;;18.10;99.90;;;;;;5093310;28;20180;-81
2023/09/02 03:23:22;;;;;;;8.98;7.97;;;18.20;99.90;;;;;;5092952;28;20183;-81
2023/09/02 03:25:47;;;;;;;7.50;6.17;;;18.30;99.90;;;;;;5092973;28;20179;-80
2023/09/02 03:28:13;;;;;;;7.63;6.77;;;18.30;99.90;;;;;;5091678;28;20176;-81
2023/09/02 03:30:39;;;;;;;7.32;5.60;;;18.30;99.90;;;;;;5093142;28;20574;-82
2023/09/02 03:33:05;;;;;;;10.57;5.95;;;18.20;99.90;;;;;;5093104;28;20651;-81
2023/09/02 03:35:37;;;;;;;10.82;5.40;;;18.20;99.90;;;;;;5092570;28;20200;-83
2023/09/02 03:38:03;;;;;;;9.52;5.80;;;18.10;99.90;;;;;;5092883;28;20176;-81
2023/09/02 03:40:29;;;;;;;8.07;6.27;;;18.00;99.90;;;;;;5091903;28;20168;-82
2023/09/02 03:42:55;;;;;;;13.02;6.18;;;17.90;99.90;;;;;;5093144;28;20176;-82
2023/09/02 03:45:20;;;;;;;8.70;5.43;;;17.80;99.90;;;;;;5093125;28;20186;-82
2023/09/02 03:47:46;;;;;;;8.17;5.50;;;17.70;99.90;;;;;;5093138;28;20592;-82
2023/09/02 03:50:12;;;;;;;6.75;5.47;;;17.70;99.90;;;;;;5092996;28;20636;-81
2023/09/02 03:52:37;;;;;;;9.60;5.67;;;17.60;99.90;;;;;;5092713;28;20620;-81
2023/09/02 03:55:03;;;;;;;6.10;5.47;;;17.60;99.90;;;;;;5092718;28;20255;-82
2023/09/02 03:57:30;;;;;;;8.03;5.80;;;17.60;99.90;;;;;;5092874;28;20212;-83
2023/09/02 03:59:56;;;;;;;9.27;5.87;;;17.50;99.90;;;;;;5092875;28;20172;-81
2023/09/02 04:02:21;;;;;;;9.87;5.63;;;17.50;99.90;;;;;;5096499;28;20176;-81
2023/09/02 04:04:47;;;;;;;6.43;5.37;;;17.50;99.90;;;;;;5096264;28;20168;-82
2023/09/02 04:07:12;;;;;;;5.70;5.20;;;17.50;99.90;;;;;;5096103;28;20521;-81
2023/09/02 04:09:38;;;;;;;6.55;5.90;;;17.40;99.90;;;;;;5096706;28;20179;-81
2023/09/02 04:12:04;;;;;;;6.80;6.10;;;17.40;99.90;;;;;;5096507;28;20616;-82
2023/09/02 04:14:30;;;;;;;6.53;5.87;;;17.50;99.90;;;;;;5096682;28;20708;-81
2023/09/02 04:16:58;;;;;;;11.00;6.43;;;17.60;99.90;;;;;;5096114;28;20204;-82
2023/09/02 04:19:23;;;;;;;7.63;6.20;;;17.70;99.90;;;;;;5096085;28;20744;-82
2023/09/02 04:21:51;;;;;;;7.33;6.20;;;17.80;99.90;;;;;;5095829;28;20258;-82
2023/09/02 04:24:17;;;;;;;7.00;6.30;;;17.90;99.90;;;;;;5095949;28;20176;-81
2023/09/02 04:26:42;;;;;;;9.37;6.47;;;18.00;99.90;;;;;;5095821;28;20208;-82
2023/09/02 04:29:08;;;;;;;10.13;6.80;;;17.90;99.90;;;;;;5096052;28;20176;-81
2023/09/02 04:31:34;;;;;;;11.90;6.17;;;17.80;99.90;;;;;;5095863;28;20203;-81
2023/09/02 04:33:59;;;;;;;9.13;5.87;;;17.80;99.90;;;;;;5094804;28;20263;-81
2023/09/02 04:36:25;;;;;;;7.00;5.90;;;17.80;99.90;;;;;;5095043;28;20204;-81
2023/09/02 04:38:53;;;;;;;11.87;5.90;;;17.70;99.90;;;;;;5094647;28;20176;-81
2023/09/02 04:41:19;;;;;;;12.88;5.65;;;17.80;99.90;;;;;;5095633;28;20168;-82
2023/09/02 04:43:44;;;;;;;6.93;6.10;;;17.90;99.90;;;;;;5095767;28;20626;-81
2023/09/02 04:46:10;;;;;;;8.30;5.88;;;17.90;99.90;;;;;;5093932;28;20176;-81
2023/09/02 04:48:36;;;;;;;7.78;5.80;;;17.80;99.90;;;;;;5095041;28;20168;-82
2023/09/02 04:51:05;;;;;;;9.05;6.03;;;17.90;99.90;;;;;;5095078;28;20164;-81
2023/09/02 04:53:31;;;;;;;6.40;5.70;;;17.80;99.90;;;;;;5095405;28;20164;-81
2023/09/02 04:55:56;;;;;;;8.57;5.95;;;17.80;99.90;;;;;;5094180;28;20692;-82
2023/09/02 04:58:23;;;;;;;8.43;6.53;;;17.90;99.90;;;;;;5095521;28;20225;-81
2023/09/02 05:00:49;;;;;;;9.17;6.07;;;18.00;99.90;;;;;;5095125;28;20669;-81
2023/09/02 05:03:15;;;;;;;6.40;5.80;;;17.90;99.90;;;;;;5094153;28;20179;-81
2023/09/02 05:05:41;;;;;;;7.25;6.32;;;17.90;99.90;;;;;;5094804;28;20176;-81
2023/09/02 05:08:06;;;;;;;9.00;6.60;;;17.90;99.90;;;;;;5095287;28;20164;-81
2023/09/02 05:10:32;;;;;;;8.68;6.20;;;17.90;99.90;;;;;;5095161;28;20176;-81
2023/09/02 05:12:58;;;;;;;7.33;6.30;;;17.90;99.90;;;;;;5094231;28;20195;-81
2023/09/02 05:15:24;;;;;;;8.40;6.37;;;18.00;99.90;;;;;;5094747;28;20687;-82
2023/09/02 05:17:50;;;;;;;11.20;6.70;;;18.10;99.90;;;;;;5094988;28;20176;-81
2023/09/02 05:20:16;;;;;;;9.27;6.93;;;18.20;99.90;;;;;;5094512;28;20242;-81
2023/09/02 05:22:41;;;;;;;9.45;6.70;;;18.10;99.90;;;;;;5095273;28;20172;-82
2023/09/02 05:25:07;;;;;;;10.47;7.07;;;17.90;99.90;;;;;;5095202;28;20179;-81
2023/09/02 05:27:33;;;;;;;11.25;6.80;;;17.90;99.90;;;;;;5095000;28;20286;-82
2023/09/02 05:29:59;;;;;;;10.17;5.23;;;17.80;99.90;;;;;;5095119;28;20207;-81
2023/09/02 05:32:24;;;;;;;6.07;5.30;;;17.60;99.90;;;;;;5095150;28;20550;-80
2023/09/02 05:34:50;;;;;;;8.93;5.80;;;17.50;99.90;;;;;;5094700;28;20701;-81
2023/09/02 05:37:16;;;;;;;7.83;5.07;;;17.50;99.90;;;;;;5094506;28;20214;-81
2023/09/02 05:39:41;;;;;;;8.70;5.37;;;17.60;99.90;;;;;;5094806;28;20164;-81
2023/09/02 05:42:07;;;;;;;10.17;5.33;;;17.80;99.90;;;;;;5094983;28;20168;-82
2023/09/02 05:44:35;;;;;;;16.20;6.00;;;17.90;99.90;;;;;;5094389;28;20168;-82
2023/09/02 05:47:01;;;;;;;12.25;5.70;;;17.90;99.90;;;;;;5094524;28;20180;-81
2023/09/02 05:49:27;;;;;;;10.57;5.70;;;18.10;99.90;;;;;;5094101;28;20168;-82
2023/09/02 05:51:52;;;;;;;15.70;6.40;;;18.20;99.90;;;;;;5094314;28;20164;-82
2023/09/02 05:54:18;;;;;;;9.68;6.03;;;18.40;99.90;;;;;;5094213;28;20163;-81
2023/09/02 05:56:46;;;;;;;12.07;5.80;;;18.50;99.90;;;;;;5094257;28;20670;-81
2023/09/02 05:59:13;;;;;;;6.45;5.80;;;18.60;99.90;;;;;;5094294;28;20207;-81
2023/09/02 06:01:39;;;;;;;6.95;5.15;;;18.90;99.90;;;;;;5094072;28;20655;-82
2023/09/02 06:04:04;;;;;;;9.23;5.82;;;19.10;99.90;;;;;;5093459;28;20180;-82
2023/09/02 06:06:30;;;;;;;8.95;5.13;;;19.10;99.90;;;;;;5093934;28;20164;-81
2023/09/02 06:08:56;;;;;;;7.95;5.28;;;19.20;99.90;;;;;;5092615;28;20269;-82
2023/09/02 06:11:21;;;;;;;9.27;5.30;;;19.30;99.90;;;;;;5093771;28;20242;-81
2023/09/02 06:13:47;;;;;;;9.38;5.15;;;19.40;99.90;;;;;;5093990;28;20527;-82
2023/09/02 06:16:12;;;;;;;7.18;5.90;;;19.60;99.90;;;;;;5093386;28;20208;-81
2023/09/02 06:18:38;;;;;;;9.10;5.75;;;19.80;99.90;;;;;;5093369;28;20168;-80
2023/09/02 06:21:11;;;;;;;7.68;5.53;;;19.70;99.90;;;;;;5094303;28;20623;-82
2023/09/02 06:23:37;;;;;;;7.07;5.93;;;19.50;99.90;;;;;;5093482;28;20172;-82
2023/09/02 06:26:03;;;;;;;7.03;5.43;;;19.40;99.90;;;;;;5093431;28;20256;-81
2023/09/02 06:28:29;;;;;;;7.93;5.47;;;19.80;99.90;;;;;;5093886;28;20187;-81
2023/09/02 06:30:55;;;;;;;5.68;5.10;;;20.10;99.90;;;;;;5093482;28;20160;-82
2023/09/02 06:33:24;;;;;;;6.10;5.25;;;20.40;99.90;;;;;;5093843;28;20171;-81
2023/09/02 06:35:50;;;;;;;7.57;5.55;;;20.80;99.90;;;;;;5093479;28;20215;-81
2023/09/02 06:38:17;;;;;;;7.70;5.00;;;21.20;99.90;;;;;;5093336;28;20588;-81
2023/09/02 06:40:43;;;;;;;7.55;5.07;;;22.00;99.90;;;;;;5093078;28;20241;-82
2023/09/02 06:43:08;;;;;;;8.75;5.22;;;22.70;99.90;;;;;;5093588;28;20558;-81
2023/09/02 06:45:34;;;;;;;8.32;5.55;;;23.50;99.90;;;;;;5092869;28;20167;-81
2023/09/02 06:48:00;;;;;;;5.40;4.97;;;23.50;99.90;;;;;;5093640;28;20258;-80
2023/09/02 06:50:27;;;;;;;5.72;5.15;;;24.20;99.90;;;;;;5093041;28;20163;-81
2023/09/02 06:52:53;;;;;;;7.95;5.32;;;24.70;99.90;;;;;;5092936;28;20167;-81
2023/09/02 06:55:18;;;;;;;8.90;5.20;;;25.20;99.90;;;;;;5093081;28;20260;-81
2023/09/02 06:57:44;;;;;;;10.55;4.90;;;25.60;99.90;;;;;;5093398;28;20674;-82
2023/09/02 07:00:13;;;;;;;11.25;5.43;;;26.60;99.90;;;;;;5092709;28;20168;-81
2023/09/02 07:02:39;;;;;;;7.47;5.72;;;26.70;99.90;;;;;;5093131;28;20163;-81
2023/09/02 07:05:05;;;;;;;6.13;4.97;;;26.90;99.90;;;;;;5093035;28;20160;-81
2023/09/02 07:07:31;;;;;;;7.53;4.57;;;26.90;99.90;;;;;;5091573;28;20187;-81
2023/09/02 07:09:58;;;;;;;10.70;4.50;;;26.90;99.90;;;;;;5092737;28;20175;-81
2023/09/02 07:12:24;;;;;;;5.57;4.10;;;26.90;99.90;;;;;;5093326;28;20254;-80
2023/09/02 07:14:49;;;;;;;4.38;3.80;;;26.60;99.90;;;;;;5092348;28;20666;-81
2023/09/02 07:17:15;;;;;;;6.50;3.90;;;26.40;99.90;;;;;;5091658;28;20207;-81
2023/09/02 07:19:40;;;;;;;4.20;3.70;;;25.80;99.90;;;;;;5092346;28;20300;-81
2023/09/02 07:22:06;;;;;;;5.35;3.88;;;25.50;99.90;;;;;;5092868;28;20208;-80
2023/09/02 07:24:32;;;;;;;6.78;4.00;;;25.40;99.90;;;;;;5093095;28;20528;-80
2023/09/02 07:26:57;;;;;;;4.07;3.25;;;25.50;99.90;;;;;;5092699;28;20548;-81
2023/09/02 07:29:24;;;;;;;4.97;3.72;;;25.40;99.90;;;;;;5092884;28;20192;-81
2023/09/02 07:31:50;;;;;;;5.05;2.92;;;25.70;99.90;;;;;;5092924;28;20176;-81
2023/09/02 07:34:15;;;;;;;8.52;3.72;;;26.30;99.90;;;;;;5091340;28;20251;-81
2023/09/02 07:36:42;;;;;;;4.35;3.15;;;26.50;99.90;;;;;;5095778;28;20675;-83
2023/09/02 07:39:07;;;;;;;3.47;2.90;;;26.40;99.90;;;;;;5096779;28;20183;-82
2023/09/02 07:41:33;;;;;;;4.65;2.60;;;27.10;99.90;;;;;;5097979;28;20180;-84
2023/09/02 07:43:59;;;;;;;4.65;2.97;;;27.30;99.90;;;;;;5096634;28;20184;-82
2023/09/02 07:46:24;;;;;;;4.63;2.75;;;27.60;99.90;;;;;;5096287;28;20744;-83
2023/09/02 07:48:50;;;;;;;5.97;3.03;;;27.80;99.90;;;;;;5096666;28;20175;-82
2023/09/02 07:51:19;;;;;;;5.22;2.70;;;27.40;99.90;;;;;;5096523;28;20199;-82
2023/09/02 07:53:45;;;;;;;3.25;2.50;;;26.90;99.90;;;;;;5096009;28;20198;-81
2023/09/02 07:56:11;;;;;;;4.35;2.95;;;26.90;99.90;;;;;;5096026;28;20739;-82
2023/09/02 07:58:37;;;;;;;3.00;2.60;;;27.60;99.90;;;;;;5096275;28;20266;-84
2023/09/02 08:01:02;;;;;;;3.25;2.95;;;27.90;99.90;;;;;;5096491;28;20216;-82
2023/09/02 08:03:28;;;;;;;3.25;3.05;;;28.10;99.90;;;;;;5096645;28;20168;-82
2023/09/02 08:05:54;;;;;;;9.35;3.33;;;27.90;99.90;;;;;;5095836;28;20251;-82
2023/09/02 08:08:20;;;;;;;4.40;2.65;;;27.10;99.90;;;;;;5096326;28;20176;-82
2023/09/02 08:10:46;;;;;;;3.25;2.80;;;26.70;99.90;;;;;;5096194;28;20168;-81
2023/09/02 08:13:11;;;;;;;7.18;2.83;;;26.20;99.90;;;;;;5095913;28;20176;-81
2023/09/02 08:15:40;;;;;;;3.78;2.83;;;26.10;99.90;;;;;;5096196;28;20629;-80
2023/09/02 08:18:06;;;;;;;5.00;3.45;;;25.60;99.90;;;;;;5095335;28;20196;-82
2023/09/02 08:20:32;;;;;;;6.03;2.95;;;25.80;99.90;;;;;;5095667;28;20284;-79
2023/09/02 08:22:58;;;;;;;3.10;2.90;;;25.80;99.90;;;;;;5095722;28;20179;-81
2023/09/02 08:25:24;;;;;;;3.47;3.17;;;26.00;99.90;;;;;;5095620;28;20204;-81
2023/09/02 08:27:50;;;;;;;3.72;2.80;;;25.90;99.90;;;;;;5095703;28;20172;-80
2023/09/02 08:30:16;;;;;;;5.00;3.00;;;26.30;99.90;;;;;;5095532;28;20156;-80
2023/09/02 08:32:42;;;;;;;6.10;3.10;;;26.60;99.90;;;;;;5095962;28;20175;-80
2023/09/02 08:35:08;;;;;;;3.47;2.70;;;26.90;99.90;;;;;;5095557;28;20292;-81
2023/09/02 08:37:37;;;;;;;4.10;2.72;;;27.70;99.90;;;;;;5095760;28;20250;-80
2023/09/02 08:40:03;;;;;;;3.05;2.80;;;28.90;99.90;;;;;;5095955;28;20259;-79
2023/09/02 08:42:31;;;;;;;5.22;2.88;;;30.00;98.70;;;;;;5097257;28;20164;-79
2023/09/02 08:44:58;;;;;;;2.72;2.58;;;31.00;96.00;;;;;;5106195;28;20235;-80
2023/09/02 08:47:27;;;;;;;4.40;2.65;;;31.80;93.50;;;;;;5100342;28;20175;-79
2023/09/02 08:49:54;;;;;;;3.30;2.88;;;33.00;90.40;;;;;;5095017;28;20164;-79
2023/09/02 08:52:21;;;;;;;3.15;2.80;;;33.40;85.70;;;;;;5095358;28;20180;-80
2023/09/02 08:54:47;;;;;;;3.45;3.15;;;34.60;80.70;;;;;;5095165;28;20182;-79
2023/09/02 08:57:16;;;;;;;3.88;3.00;;;34.10;78.80;;;;;;5094964;28;20208;-80
2023/09/02 08:59:41;;;;;;;5.15;2.78;;;35.00;74.80;;;;;;5093749;28;20194;-79
2023/09/02 09:02:10;;;;;;;6.82;2.88;;;35.60;69.80;;;;;;5095457;28;20627;-79
2023/09/02 09:04:38;;;;;;;6.68;3.08;;;36.00;67.40;;;;;;5095445;28;20627;-78
2023/09/02 09:07:04;;;;;;;5.57;2.25;;;36.20;64.70;;;;;;5096385;28;20244;-79
2023/09/02 09:09:34;;;;;;;2.83;2.63;;;36.10;64.30;;;;;;5096425;28;20160;-79
2023/09/02 09:12:01;;;;;;;5.15;2.90;;;36.90;60.30;;;;;;5096480;28;20168;-78
2023/09/02 09:14:31;;;;;;;3.83;2.40;;;36.20;60.00;;;;;;5096286;28;20189;-78
2023/09/02 09:16:58;;;;;;;3.47;2.40;;;36.40;60.40;;;;;;5098511;28;20224;-79
2023/09/02 09:19:25;;;;;;;3.33;2.45;;;36.20;59.60;;;;;;5099655;28;20219;-78
2023/09/02 09:21:51;;;;;;;3.00;2.63;;;35.10;63.60;;;;;;5099669;28;20171;-81
2023/09/02 09:24:17;;;;;;;4.40;3.85;;;35.00;65.40;;;;;;5096562;28;20175;-81
2023/09/02 09:26:44;;;;;;;3.22;2.92;;;34.60;64.50;;;;;;5096517;28;20645;-81
2023/09/02 09:29:22;;;;;;;3.05;2.53;;;34.60;66.40;;;;;;5096637;28;20480;-81
2023/09/02 09:31:51;;;;;;;4.25;2.33;;;34.00;68.20;;;;;;5099227;28;20193;-79
2023/09/02 09:34:16;;;;;;;2.75;2.60;;;35.10;66.60;;;;;;5096289;28;20272;-80
2023/09/02 09:36:44;;;;;;;2.65;2.45;;;35.40;63.90;;;;;;5096601;28;20257;-80
2023/09/02 09:39:09;;;;;;;2.78;2.47;;;35.90;62.60;;;;;;5097700;28;20250;-79
2023/09/02 09:41:44;;;;;;;8.15;2.63;;;36.20;60.50;;;;;;5094978;28;20608;-80
2023/09/02 09:44:17;;;;;;;3.70;2.47;;;36.10;59.90;;;;;;5096416;28;20650;-82
2023/09/02 09:46:42;;;;;;;2.90;2.50;;;36.50;59.70;;;;;;5095288;28;20167;-81
2023/09/02 09:49:20;;;;;;;4.15;2.60;;;36.20;59.60;;;;;;5095595;28;20506;-80
2023/09/02 09:51:45;;;;;;;2.50;2.17;;;36.20;60.00;;;;;;5096134;28;20228;-80
2023/09/02 09:54:11;;;;;;;3.00;2.60;;;36.60;59.10;;;;;;5097160;28;20171;-81
2023/09/02 09:56:42;;;;;;;3.67;2.20;;;36.60;57.30;;;;;;5097259;28;20191;-79
2023/09/02 09:59:08;;;;;;;7.47;2.45;;;37.10;56.90;;;;;;5094996;28;20239;-79
2023/09/02 10:01:35;;;;;;;3.70;2.40;;;37.50;55.50;;;;;;5094764;28;20644;-80
2023/09/02 10:04:07;;;;;;;2.38;1.90;;;37.70;53.90;;;;;;5095854;28;20172;-79
2023/09/02 10:06:39;;;;;;;2.25;2.03;;;37.50;54.50;;;;;;5100370;28;20183;-82
2023/09/02 10:09:05;;;;;;;3.85;3.45;;;38.00;52.80;;;;;;5097485;28;20187;-81
2023/09/02 10:11:31;;;;;;;4.45;2.47;;;37.80;53.00;;;;;;5094284;28;20642;-80
2023/09/02 10:13:58;;;;;;;2.90;2.00;;;38.10;51.30;;;;;;5093791;28;20170;-81
2023/09/02 10:16:25;;;;;;;1.75;1.65;;;37.90;50.90;;;;;;5093829;28;20213;-80
2023/09/02 10:18:51;;;;;;;4.80;1.58;;;35.70;53.10;;;;;;5093235;28;20207;-81
2023/09/02 10:21:20;;;;;;;2.13;1.85;;;35.20;56.80;;;;;;5093477;28;20622;-81
2023/09/02 10:23:54;;;;;;;2.15;1.70;;;35.10;58.10;;;;;;5093106;28;20270;-82
2023/09/02 10:26:39;;;;;;;4.47;2.15;;;34.20;60.30;;;;;;5093585;28;20164;-81
2023/09/02 10:29:09;;;;;;;5.57;2.30;;;33.80;62.50;;;;;;5093415;28;20187;-80
2023/09/02 10:31:45;;;;;;;2.30;2.10;;;33.60;63.90;;;;;;5093450;28;20221;-81
2023/09/02 10:34:17;;;;;;;3.60;2.60;;;33.30;65.80;;;;;;5092828;28;20182;-82
2023/09/02 10:36:54;;;;;;;4.07;2.70;;;32.90;66.90;;;;;;5093449;28;20230;-82
2023/09/02 10:39:40;;;;;;;3.13;2.10;;;32.20;70.60;;;;;;5093218;28;20168;-82
2023/09/02 10:42:08;;;;;;;2.38;2.03;;;31.40;75.70;;;;;;5093123;28;20167;-80
2023/09/02 10:44:34;;;;;;;2.42;2.10;;;31.20;80.10;;;;;;5092986;28;20306;-81
2023/09/02 10:47:01;;;;;;;2.13;1.98;;;31.10;82.30;;;;;;5093148;28;20622;-81
2023/09/02 10:49:27;;;;;;;3.03;2.42;;;30.80;84.30;;;;;;5093158;28;20171;-82
2023/09/02 10:51:54;;;;;;;2.33;2.15;;;30.20;87.60;;;;;;5092968;28;20179;-81
2023/09/02 10:54:20;;;;;;;3.60;3.05;;;30.20;90.00;;;;;;5093046;28;20175;-81
2023/09/02 10:56:45;;;;;;;3.10;2.13;;;29.90;91.10;;;;;;5092390;28;20204;-81
2023/09/02 10:59:26;;;;;;;3.03;2.50;;;29.90;93.00;;;;;;5093107;28;20202;-81
2023/09/02 11:01:51;;;;;;;2.25;2.05;;;29.90;92.80;;;;;;5093486;28;20172;-82
2023/09/02 11:04:45;;;;;;;2.42;2.03;;;29.50;94.50;;;;;;5091997;28;20653;-84
2023/09/02 11:07:22;;;;;;;2.15;1.92;;;29.20;96.70;;;;;;5092670;28;20170;-82
2023/09/02 11:09:54;;;;;;;2.83;1.80;;;28.80;98.40;;;;;;5092809;28;20172;-82
2023/09/02 11:12:20;;;;;;;3.50;1.95;;;28.60;99.70;;;;;;5097207;28;20233;-81
2023/09/02 11:15:08;;;;;;;3.97;2.22;;;28.20;99.90;;;;;;5096971;28;20172;-81
2023/09/02 11:17:35;;;;;;;3.25;3.03;;;28.00;99.90;;;;;;5089272;28;20220;-80
2023/09/02 11:20:05;;;;;;;2.47;2.28;;;27.80;99.90;;;;;;5096589;28;20226;-83
2023/09/02 11:22:50;;;;;;;2.53;2.33;;;28.40;99.90;;;;;;5096776;28;20188;-83
2023/09/02 11:25:29;;;;;;;3.42;1.92;;;29.50;99.40;;;;;;5097090;28;20173;-83
2023/09/02 11:27:55;;;;;;;1.70;1.60;;;29.90;97.50;;;;;;5097287;28;20203;-81
2023/09/02 11:30:23;;;;;;;1.65;1.55;;;29.50;98.00;;;;;;5096720;28;20175;-81
2023/09/02 11:32:49;;;;;;;2.10;1.70;;;30.00;97.20;;;;;;5096900;28;20176;-81
2023/09/02 11:35:27;;;;;;;2.17;1.58;;;29.60;97.70;;;;;;5096890;28;20184;-82
2023/09/02 11:37:53;;;;;;;2.25;1.70;;;30.20;96.20;;;;;;5096916;28;20210;-82
2023/09/02 11:40:21;;;;;;;2.88;1.90;;;29.70;97.20;;;;;;5095169;28;20164;-81
2023/09/02 11:42:59;;;;;;;2.88;1.83;;;29.20;97.20;;;;;;5096003;28;20229;-79
2023/09/02 11:45:33;;;;;;;1.83;1.70;;;29.10;97.60;;;;;;5096358;28;20164;-80
2023/09/02 11:47:59;;;;;;;1.25;1.23;;;28.60;98.90;;;;;;5096494;28;20164;-82
2023/09/02 11:50:25;;;;;;;4.35;1.48;;;28.60;99.00;;;;;;5095741;28;20229;-79
2023/09/02 11:52:57;;;;;;;2.22;1.40;;;28.40;98.90;;;;;;5096525;28;20183;-79
2023/09/02 11:55:23;;;;;;;2.45;1.80;;;28.10;99.00;;;;;;5096270;28;20263;-78
2023/09/02 11:57:49;;;;;;;2.03;1.75;;;28.30;99.60;;;;;;5096253;28;20219;-79
2023/09/02 12:00:20;;;;;;;3.05;1.63;;;28.70;98.70;;;;;;5096251;28;20168;-80
2023/09/02 12:02:47;;;;;;;3.80;1.50;;;28.60;99.40;;;;;;5096451;28;20190;-81
2023/09/02 12:05:14;;;;;;;1.70;1.60;;;28.40;99.90;;;;;;5095638;28;20643;-80
2023/09/02 12:07:42;;;;;;;2.20;2.00;;;28.10;99.90;;;;;;5096418;28;20168;-79
2023/09/02 12:10:16;;;;;;;3.08;2.00;;;27.80;99.90;;;;;;5095597;28;20176;-81
2023/09/02 12:12:42;;;;;;;3.47;2.10;;;27.50;99.90;;;;;;5095620;28;20179;-80
2023/09/02 12:15:20;;;;;;;2.47;1.60;;;27.20;99.90;;;;;;5095788;28;20168;-80
2023/09/02 12:17:47;;;;;;;4.60;2.10;;;27.20;99.90;;;;;;5096197;28;20200;-80
2023/09/02 12:20:14;;;;;;;4.55;2.03;;;27.10;99.90;;;;;;5094027;28;20577;-79
2023/09/02 12:22:41;;;;;;;3.08;1.80;;;27.30;99.90;;;;;;5095784;28;20201;-81
2023/09/02 12:25:16;;;;;;;1.98;1.40;;;27.50;99.90;;;;;;5096316;28;20233;-82
2023/09/02 12:27:41;;;;;;;2.80;1.70;;;27.50;99.90;;;;;;5095778;28;20228;-81
2023/09/02 12:30:08;;;;;;;2.95;1.55;;;27.40;99.90;;;;;;5095915;28;20635;-82
2023/09/02 12:32:33;;;;;;;2.97;1.70;;;27.10;99.90;;;;;;5095686;28;20171;-79
2023/09/02 12:34:59;;;;;;;2.80;1.58;;;27.30;99.90;;;;;;5095064;28;20191;-83
2023/09/02 12:37:25;;;;;;;1.77;1.60;;;27.50;99.90;;;;;;5095555;28;20586;-81
2023/09/02 12:39:51;;;;;;;2.92;1.35;;;28.00;99.90;;;;;;5095102;28;20171;-82
2023/09/02 12:42:25;;;;;;;2.90;1.25;;;28.30;99.90;;;;;;5095445;28;20172;-82
2023/09/02 12:44:54;;;;;;;1.40;1.27;;;28.20;99.90;;;;;;5095404;28;20627;-82
2023/09/02 12:47:23;;;;;;;1.65;1.50;;;28.40;99.90;;;;;;5095371;28;20175;-82